• Join FlightAware (Why Join?)
  • Login
  • US Flag 
03:43AM EDT


 

Airport Tracker/Info


-or-


 

Live Flight TrackerFlight Track Log ✈ JBU24 ✈ 6 de May de 2013 ✈ KJFK - KSYR

Flight Track Log - Related Links

Times and Time Zones

All times are in EDT time to prevent confusion due to time zone crossing. See the JBU24 flight status page for this flight to view local times or setup timezone preferences in your user account.

Time Position Orientation Groundspeed Altitude Reporting Facility
EDT Latitude Longitude Course Direction KTS MPH feet Rate Location/Type
05:16PM 40.6333 -73.7500 323° Northwest 168 193 1,900  Level New York TRACON
05:17PM 40.6333 -73.6667 90° East 217 250 4,700 3,060 Climbing New York TRACON
05:18PM 40.6667 -73.6000 57° Northeast 235 270 8,100 3,060 Climbing New York TRACON
05:19PM 40.8815 -74.1138 311° West  Level FlightAware Approximate
05:19PM 40.7167 -73.5500 37° Northeast 242 278 10,900  Level New York TRACON
05:20PM 40.9437 -74.2014 316° Northwest  Level FlightAware Approximate
05:21PM 41.0090 -74.2853 316° Northwest  Level FlightAware Approximate
05:21PM 40.8833 -73.5000 13° North 370 426 14,500  Level New York TRACON
05:22PM 41.0714 -74.3714 323° Northwest  Level FlightAware Approximate
05:22PM 40.9667 -73.5667 329° Northwest 380 437 16,900  Level New York TRACON
05:24PM 41.0042 -73.6091 320° Northwest  Level Estimated
05:24PM 41.0333 -73.8500 320° Northwest 409 471 17,000  Level New York TRACON
05:26PM 41.0716 -73.8898 322° Northwest  Level Estimated
05:26PM 41.1136 -74.1364 322° Northwest 406 467 17,000  Level New York Center
05:28PM 41.1591 -74.1795 324° Northwest  Level Estimated
05:29PM 41.2181 -74.5389 324° Northwest 401 461 20,600  Level New York Center
05:30PM 41.2789 -74.6581 304° West 392 451 22,000 420 Climbing New York Center
05:32PM 41.4225 -74.9017 308° West 413 475 22,000  Level New York Center
05:34PM 41.5661 -75.1350 309° West 413 475 22,000  Level New York Center
05:35PM 41.4481 -74.4555 324° Northwest  Level Estimated
05:36PM 41.6008 -75.1950 308° West  Level FlightAware Approximate
05:37PM 41.7775 -75.4881 308° West 413 475 22,000  Level New York Center
05:39PM 41.8292 -75.5918 304° West  Level FlightAware Approximate
05:39PM 41.9178 -75.7267 304° West 413 475 22,000  Level New York Center
05:40PM 41.9836 -75.8433 307° West 408 470 19,900 -2,400 Descending New York Center
05:41PM 42.0517 -75.9572 309° West 402 463 17,200 -1,920 Descending New York Center
05:42PM 42.1175 -76.0686 309° West 397 457 16,100 -540 Descending New York Center
05:43PM 41.8177 -75.5726 308° West  Level FlightAware Approximate
05:44PM 42.1846 -76.1290 North  Level FlightAware Approximate
05:45PM 42.4203 -76.1108 348° North 378 435 15,200  Level Boston Center
05:46PM 42.5164 -76.0994 North 379 436 12,400 -2,580 Descending Boston Center
05:47PM 42.6231 -76.0889 North 362 417 10,100 -2,040 Descending Boston Center
05:48PM 42.7156 -76.0689 North 285 328 8,200 -2,040 Descending Boston Center
05:49PM 42.7933 -76.0508 10° North 282 325 6,000 -1,980 Descending Boston Center
05:50PM 42.8625 -76.0406 North 278 320 4,500 -1,080 Descending Boston Center
05:51PM 42.7585 -76.0929 348° North  Level FlightAware Approximate
05:51PM 42.9339 -76.0250 North 253 291 4,000  Level Boston Center
05:53PM 43.0325 -76.0701 North  Level Estimated
05:54PM 43.0808 -76.0592 124° Southeast 143 165 1,200  Level Boston Center
06:00PM 43.1000 -76.1000 124° Southeast  Level FlightAware Approximate